Little Red, Arkansas
Current Conditions -  °F | °C
As of 9:56 PM on Wednesday 26 Nov 2014 (Local Time) from KSRC Reporting Station
Clear Clear  
Wind Chill: 28°   Ceiling: Unl
Heat Index: 33°   Visibility: 10mi
Dew Point: 29°   Wind: 6mph
Humidity: 85%   Direction: 310°NW
Pressure: 30.23"   Gusts: NA
Location:  35.4331°N, 91.7663°W
Report Text: KSRC 270356Z AUTO 31005KT 10SM CLR 01/M02 A3023 RMK AO2 SLP243 T00061017 FZRANO TSNO
Loading
Personal Weather Stations






























Interactive Weather Map New forecast layout! Learn more

10-Day Weather Forecast

Advertisements
Track Severe Weather on mobile